sensor_id;sensor_type;location;lat;lon;timestamp;temperature;humidity
12833;DHT22;6483;51.310;4.462;2023-05-10T00:02:22;13.70;99.90
12833;DHT22;6483;51.310;4.462;2023-05-10T00:04:49;13.80;99.90
12833;DHT22;6483;51.310;4.462;2023-05-10T00:07:15;13.80;99.90
12833;DHT22;6483;51.310;4.462;2023-05-10T00:09:43;13.80;99.90
12833;DHT22;6483;51.310;4.462;2023-05-10T00:12:11;13.80;99.90
12833;DHT22;6483;51.310;4.462;2023-05-10T00:14:41;13.80;99.90
12833;DHT22;6483;51.310;4.462;2023-05-10T00:17:09;13.80;99.90
12833;DHT22;6483;51.310;4.462;2023-05-10T00:19:35;13.80;99.90
12833;DHT22;6483;51.310;4.462;2023-05-10T00:22:01;13.70;99.90
12833;DHT22;6483;51.310;4.462;2023-05-10T00:24:27;13.80;99.90
12833;DHT22;6483;51.310;4.462;2023-05-10T00:26:52;13.80;99.90
12833;DHT22;6483;51.310;4.462;2023-05-10T00:29:21;13.70;99.90
12833;DHT22;6483;51.310;4.462;2023-05-10T00:31:50;13.80;99.90
12833;DHT22;6483;51.310;4.462;2023-05-10T00:34:19;13.70;99.90
12833;DHT22;6483;51.310;4.462;2023-05-10T00:36:44;13.90;99.90
12833;DHT22;6483;51.310;4.462;2023-05-10T00:39:10;13.90;99.90
12833;DHT22;6483;51.310;4.462;2023-05-10T00:41:36;13.90;99.90
12833;DHT22;6483;51.310;4.462;2023-05-10T00:44:02;13.90;99.90
12833;DHT22;6483;51.310;4.462;2023-05-10T00:46:28;14.00;99.90
12833;DHT22;6483;51.310;4.462;2023-05-10T00:48:56;13.80;99.90
12833;DHT22;6483;51.310;4.462;2023-05-10T00:51:22;13.80;99.90
12833;DHT22;6483;51.310;4.462;2023-05-10T00:53:48;13.70;99.90
12833;DHT22;6483;51.310;4.462;2023-05-10T00:56:15;13.70;99.90
12833;DHT22;6483;51.310;4.462;2023-05-10T00:58:42;13.70;99.90
12833;DHT22;6483;51.310;4.462;2023-05-10T01:01:09;13.70;99.90
12833;DHT22;6483;51.310;4.462;2023-05-10T01:03:36;13.70;99.90
12833;DHT22;6483;51.310;4.462;2023-05-10T01:06:02;13.70;99.90
12833;DHT22;6483;51.310;4.462;2023-05-10T01:08:28;13.70;99.90
12833;DHT22;6483;51.310;4.462;2023-05-10T01:10:55;13.70;99.90
12833;DHT22;6483;51.310;4.462;2023-05-10T01:13:33;13.60;99.90
12833;DHT22;6483;51.310;4.462;2023-05-10T01:15:59;13.60;99.90
12833;DHT22;6483;51.310;4.462;2023-05-10T01:18:28;13.60;99.90
12833;DHT22;6483;51.310;4.462;2023-05-10T01:21:09;13.50;99.90
12833;DHT22;6483;51.310;4.462;2023-05-10T01:29:32;13.40;99.90
12833;DHT22;6483;51.310;4.462;2023-05-10T01:32:21;13.40;99.90
12833;DHT22;6483;51.310;4.462;2023-05-10T01:37:45;13.30;99.90
12833;DHT22;6483;51.310;4.462;2023-05-10T01:43:05;13.10;99.90
12833;DHT22;6483;51.310;4.462;2023-05-10T01:45:50;13.10;99.90
12833;DHT22;6483;51.310;4.462;2023-05-10T01:48:19;13.10;99.90
12833;DHT22;6483;51.310;4.462;2023-05-10T01:50:48;13.10;99.90
12833;DHT22;6483;51.310;4.462;2023-05-10T01:53:18;13.10;99.90
12833;DHT22;6483;51.310;4.462;2023-05-10T01:55:53;13.20;99.90
12833;DHT22;6483;51.310;4.462;2023-05-10T01:58:23;13.20;99.90
12833;DHT22;6483;51.310;4.462;2023-05-10T02:00:52;13.20;99.90
12833;DHT22;6483;51.310;4.462;2023-05-10T02:03:24;13.10;99.90
12833;DHT22;6483;51.310;4.462;2023-05-10T02:05:54;13.10;99.90
12833;DHT22;6483;51.310;4.462;2023-05-10T02:08:26;13.10;99.90
12833;DHT22;6483;51.310;4.462;2023-05-10T02:10:55;13.00;99.90
12833;DHT22;6483;51.310;4.462;2023-05-10T02:13:23;12.90;99.90
12833;DHT22;6483;51.310;4.462;2023-05-10T02:15:50;12.90;99.90
12833;DHT22;6483;51.310;4.462;2023-05-10T02:18:20;12.90;99.90
12833;DHT22;6483;51.310;4.462;2023-05-10T02:20:48;12.90;99.90
12833;DHT22;6483;51.310;4.462;2023-05-10T02:23:17;12.90;99.90
12833;DHT22;6483;51.310;4.462;2023-05-10T02:25:44;13.00;99.90
12833;DHT22;6483;51.310;4.462;2023-05-10T02:28:12;13.00;99.90
12833;DHT22;6483;51.310;4.462;2023-05-10T02:30:42;13.10;99.90
12833;DHT22;6483;51.310;4.462;2023-05-10T02:33:08;13.10;99.90
12833;DHT22;6483;51.310;4.462;2023-05-10T02:35:35;13.10;99.90
12833;DHT22;6483;51.310;4.462;2023-05-10T02:38:05;13.00;99.90
12833;DHT22;6483;51.310;4.462;2023-05-10T02:40:33;13.00;99.90
12833;DHT22;6483;51.310;4.462;2023-05-10T02:43:01;12.90;99.90
12833;DHT22;6483;51.310;4.462;2023-05-10T02:45:31;12.90;99.90
12833;DHT22;6483;51.310;4.462;2023-05-10T02:47:58;13.00;99.90
12833;DHT22;6483;51.310;4.462;2023-05-10T02:50:27;12.80;99.90
12833;DHT22;6483;51.310;4.462;2023-05-10T02:52:58;12.80;99.90
12833;DHT22;6483;51.310;4.462;2023-05-10T02:55:27;12.80;99.90
12833;DHT22;6483;51.310;4.462;2023-05-10T02:58:04;12.80;99.90
12833;DHT22;6483;51.310;4.462;2023-05-10T03:00:30;12.80;99.90
12833;DHT22;6483;51.310;4.462;2023-05-10T03:02:56;12.80;99.90
12833;DHT22;6483;51.310;4.462;2023-05-10T03:05:25;12.80;99.90
12833;DHT22;6483;51.310;4.462;2023-05-10T03:07:51;12.80;99.90
12833;DHT22;6483;51.310;4.462;2023-05-10T03:10:19;12.80;99.90
12833;DHT22;6483;51.310;4.462;2023-05-10T03:15:59;12.70;99.90
12833;DHT22;6483;51.310;4.462;2023-05-10T03:18:33;12.70;99.90
12833;DHT22;6483;51.310;4.462;2023-05-10T03:21:07;12.60;99.90
12833;DHT22;6483;51.310;4.462;2023-05-10T03:26:31;12.70;99.90
12833;DHT22;6483;51.310;4.462;2023-05-10T03:28:57;12.60;99.90
12833;DHT22;6483;51.310;4.462;2023-05-10T03:31:25;12.70;99.90
12833;DHT22;6483;51.310;4.462;2023-05-10T03:33:52;12.70;99.90
12833;DHT22;6483;51.310;4.462;2023-05-10T03:36:19;12.70;99.90
12833;DHT22;6483;51.310;4.462;2023-05-10T03:38:45;12.70;99.90
12833;DHT22;6483;51.310;4.462;2023-05-10T03:41:11;12.80;99.90
12833;DHT22;6483;51.310;4.462;2023-05-10T03:43:38;12.80;99.90
12833;DHT22;6483;51.310;4.462;2023-05-10T03:46:07;12.80;99.90
12833;DHT22;6483;51.310;4.462;2023-05-10T03:48:35;12.80;99.90
12833;DHT22;6483;51.310;4.462;2023-05-10T03:51:02;12.80;99.90
12833;DHT22;6483;51.310;4.462;2023-05-10T03:53:28;12.70;99.90
12833;DHT22;6483;51.310;4.462;2023-05-10T03:55:54;12.70;99.90
12833;DHT22;6483;51.310;4.462;2023-05-10T03:58:20;12.70;99.90
12833;DHT22;6483;51.310;4.462;2023-05-10T04:00:46;12.70;99.90
12833;DHT22;6483;51.310;4.462;2023-05-10T04:03:12;12.70;99.90
12833;DHT22;6483;51.310;4.462;2023-05-10T04:05:41;12.70;99.90
12833;DHT22;6483;51.310;4.462;2023-05-10T04:08:07;12.70;99.90
12833;DHT22;6483;51.310;4.462;2023-05-10T04:10:33;12.70;99.90
12833;DHT22;6483;51.310;4.462;2023-05-10T04:12:58;12.70;99.90
12833;DHT22;6483;51.310;4.462;2023-05-10T04:15:24;12.70;99.90
12833;DHT22;6483;51.310;4.462;2023-05-10T04:17:50;12.70;99.90
12833;DHT22;6483;51.310;4.462;2023-05-10T04:20:19;12.80;99.90
12833;DHT22;6483;51.310;4.462;2023-05-10T04:22:48;12.80;99.90
12833;DHT22;6483;51.310;4.462;2023-05-10T04:25:14;12.80;99.90
12833;DHT22;6483;51.310;4.462;2023-05-10T04:27:40;12.80;99.90
12833;DHT22;6483;51.310;4.462;2023-05-10T04:30:06;12.80;99.90
12833;DHT22;6483;51.310;4.462;2023-05-10T04:32:36;12.70;99.90
12833;DHT22;6483;51.310;4.462;2023-05-10T04:35:01;12.70;99.90
12833;DHT22;6483;51.310;4.462;2023-05-10T04:37:28;12.70;99.90
12833;DHT22;6483;51.310;4.462;2023-05-10T04:39:54;12.60;99.90
12833;DHT22;6483;51.310;4.462;2023-05-10T04:42:20;12.60;99.90
12833;DHT22;6483;51.310;4.462;2023-05-10T04:44:45;12.60;99.90
12833;DHT22;6483;51.310;4.462;2023-05-10T04:47:17;12.60;99.90
12833;DHT22;6483;51.310;4.462;2023-05-10T04:49:43;12.70;99.90
12833;DHT22;6483;51.310;4.462;2023-05-10T04:52:13;12.70;99.90
12833;DHT22;6483;51.310;4.462;2023-05-10T04:54:42;12.70;99.90
12833;DHT22;6483;51.310;4.462;2023-05-10T04:57:07;12.80;99.90
12833;DHT22;6483;51.310;4.462;2023-05-10T04:59:35;12.80;99.90
12833;DHT22;6483;51.310;4.462;2023-05-10T05:02:01;12.80;99.90
12833;DHT22;6483;51.310;4.462;2023-05-10T05:04:27;12.80;99.90
12833;DHT22;6483;51.310;4.462;2023-05-10T05:06:53;12.80;99.90
12833;DHT22;6483;51.310;4.462;2023-05-10T05:09:19;12.90;99.90
12833;DHT22;6483;51.310;4.462;2023-05-10T05:11:45;13.00;99.90
12833;DHT22;6483;51.310;4.462;2023-05-10T05:14:10;13.00;99.90
12833;DHT22;6483;51.310;4.462;2023-05-10T05:16:36;13.00;99.90
12833;DHT22;6483;51.310;4.462;2023-05-10T05:19:02;13.00;99.90
12833;DHT22;6483;51.310;4.462;2023-05-10T05:21:27;13.10;99.90
12833;DHT22;6483;51.310;4.462;2023-05-10T05:23:54;13.20;99.90
12833;DHT22;6483;51.310;4.462;2023-05-10T05:26:19;13.20;99.90
12833;DHT22;6483;51.310;4.462;2023-05-10T05:28:46;13.20;99.90
12833;DHT22;6483;51.310;4.462;2023-05-10T05:31:15;13.30;99.90
12833;DHT22;6483;51.310;4.462;2023-05-10T05:33:41;13.40;99.90
12833;DHT22;6483;51.310;4.462;2023-05-10T05:36:10;13.50;99.90
12833;DHT22;6483;51.310;4.462;2023-05-10T05:38:38;13.40;99.90
12833;DHT22;6483;51.310;4.462;2023-05-10T05:41:04;13.40;99.90
12833;DHT22;6483;51.310;4.462;2023-05-10T05:43:30;13.40;99.90
12833;DHT22;6483;51.310;4.462;2023-05-10T05:45:55;13.50;99.90
12833;DHT22;6483;51.310;4.462;2023-05-10T05:48:23;13.50;99.90
12833;DHT22;6483;51.310;4.462;2023-05-10T05:50:49;13.50;99.90
12833;DHT22;6483;51.310;4.462;2023-05-10T05:53:17;13.50;99.90
12833;DHT22;6483;51.310;4.462;2023-05-10T05:56:12;13.50;99.90
12833;DHT22;6483;51.310;4.462;2023-05-10T05:58:38;13.50;99.90
12833;DHT22;6483;51.310;4.462;2023-05-10T06:01:03;13.50;99.90
12833;DHT22;6483;51.310;4.462;2023-05-10T06:03:29;13.50;99.90
12833;DHT22;6483;51.310;4.462;2023-05-10T06:05:58;13.50;99.90
12833;DHT22;6483;51.310;4.462;2023-05-10T06:08:23;13.50;99.90
12833;DHT22;6483;51.310;4.462;2023-05-10T06:10:49;13.60;99.90
12833;DHT22;6483;51.310;4.462;2023-05-10T06:13:15;13.70;99.90
12833;DHT22;6483;51.310;4.462;2023-05-10T06:15:46;13.80;99.90
12833;DHT22;6483;51.310;4.462;2023-05-10T06:18:12;14.00;99.90
12833;DHT22;6483;51.310;4.462;2023-05-10T06:20:38;14.10;99.90
12833;DHT22;6483;51.310;4.462;2023-05-10T06:23:03;14.10;99.90
12833;DHT22;6483;51.310;4.462;2023-05-10T06:25:32;14.20;99.90
12833;DHT22;6483;51.310;4.462;2023-05-10T06:27:58;14.20;99.90
12833;DHT22;6483;51.310;4.462;2023-05-10T06:30:25;14.30;99.90
12833;DHT22;6483;51.310;4.462;2023-05-10T06:32:54;14.50;99.90
12833;DHT22;6483;51.310;4.462;2023-05-10T06:35:20;14.70;99.90
12833;DHT22;6483;51.310;4.462;2023-05-10T06:37:45;14.90;99.90
12833;DHT22;6483;51.310;4.462;2023-05-10T06:40:12;15.20;99.90
12833;DHT22;6483;51.310;4.462;2023-05-10T06:42:37;15.40;99.90
12833;DHT22;6483;51.310;4.462;2023-05-10T06:45:03;15.50;99.90
12833;DHT22;6483;51.310;4.462;2023-05-10T06:47:30;15.60;99.90
12833;DHT22;6483;51.310;4.462;2023-05-10T06:49:57;15.50;99.90
12833;DHT22;6483;51.310;4.462;2023-05-10T06:52:25;15.30;99.90
12833;DHT22;6483;51.310;4.462;2023-05-10T06:54:51;15.10;99.90
12833;DHT22;6483;51.310;4.462;2023-05-10T06:57:17;15.00;99.90
12833;DHT22;6483;51.310;4.462;2023-05-10T06:59:43;14.90;99.90
12833;DHT22;6483;51.310;4.462;2023-05-10T07:02:11;14.90;99.90
12833;DHT22;6483;51.310;4.462;2023-05-10T07:04:37;14.80;99.90
12833;DHT22;6483;51.310;4.462;2023-05-10T07:07:03;14.90;99.90
12833;DHT22;6483;51.310;4.462;2023-05-10T07:09:28;14.80;99.90
12833;DHT22;6483;51.310;4.462;2023-05-10T07:11:55;14.70;99.90
12833;DHT22;6483;51.310;4.462;2023-05-10T07:14:23;14.80;99.90
12833;DHT22;6483;51.310;4.462;2023-05-10T07:16:49;14.80;99.90
12833;DHT22;6483;51.310;4.462;2023-05-10T07:19:15;14.80;99.90
12833;DHT22;6483;51.310;4.462;2023-05-10T07:21:40;14.70;99.90
12833;DHT22;6483;51.310;4.462;2023-05-10T07:24:08;14.60;99.90
12833;DHT22;6483;51.310;4.462;2023-05-10T07:26:34;14.60;99.90
12833;DHT22;6483;51.310;4.462;2023-05-10T07:29:00;14.70;99.90
12833;DHT22;6483;51.310;4.462;2023-05-10T07:31:25;14.90;99.90
12833;DHT22;6483;51.310;4.462;2023-05-10T07:33:51;15.00;99.90
12833;DHT22;6483;51.310;4.462;2023-05-10T07:36:16;15.00;99.90
12833;DHT22;6483;51.310;4.462;2023-05-10T07:38:42;15.00;99.90
12833;DHT22;6483;51.310;4.462;2023-05-10T07:41:08;15.10;99.90
12833;DHT22;6483;51.310;4.462;2023-05-10T07:43:33;15.30;99.90
12833;DHT22;6483;51.310;4.462;2023-05-10T07:45:59;15.50;99.90
12833;DHT22;6483;51.310;4.462;2023-05-10T07:48:25;15.60;99.90
12833;DHT22;6483;51.310;4.462;2023-05-10T07:50:51;15.50;99.90
12833;DHT22;6483;51.310;4.462;2023-05-10T07:53:17;15.50;99.90
12833;DHT22;6483;51.310;4.462;2023-05-10T07:55:44;15.40;99.90
12833;DHT22;6483;51.310;4.462;2023-05-10T07:58:10;15.30;99.90
12833;DHT22;6483;51.310;4.462;2023-05-10T08:00:36;15.30;99.90
12833;DHT22;6483;51.310;4.462;2023-05-10T08:03:04;16.00;99.90
12833;DHT22;6483;51.310;4.462;2023-05-10T08:05:30;16.50;99.90
12833;DHT22;6483;51.310;4.462;2023-05-10T08:07:56;16.60;99.90
12833;DHT22;6483;51.310;4.462;2023-05-10T08:10:22;16.90;99.90
12833;DHT22;6483;51.310;4.462;2023-05-10T08:12:47;16.60;99.90
12833;DHT22;6483;51.310;4.462;2023-05-10T08:15:13;16.60;99.90
12833;DHT22;6483;51.310;4.462;2023-05-10T08:17:38;16.80;99.90
12833;DHT22;6483;51.310;4.462;2023-05-10T08:20:05;16.30;99.90
12833;DHT22;6483;51.310;4.462;2023-05-10T08:22:30;16.20;99.90
12833;DHT22;6483;51.310;4.462;2023-05-10T08:24:56;15.80;99.90
12833;DHT22;6483;51.310;4.462;2023-05-10T08:27:22;15.60;99.90
12833;DHT22;6483;51.310;4.462;2023-05-10T08:29:47;16.30;99.90
12833;DHT22;6483;51.310;4.462;2023-05-10T08:32:13;17.10;99.90
12833;DHT22;6483;51.310;4.462;2023-05-10T08:34:39;18.40;99.90
12833;DHT22;6483;51.310;4.462;2023-05-10T08:37:05;18.10;92.30
12833;DHT22;6483;51.310;4.462;2023-05-10T08:39:34;18.10;38.70
12833;DHT22;6483;51.310;4.462;2023-05-10T08:42:03;18.20;52.80
12833;DHT22;6483;51.310;4.462;2023-05-10T08:44:32;19.10;28.60
12833;DHT22;6483;51.310;4.462;2023-05-10T08:46:59;19.00;1.00
12833;DHT22;6483;51.310;4.462;2023-05-10T08:49:29;18.80;27.70
12833;DHT22;6483;51.310;4.462;2023-05-10T08:51:57;19.60;1.00
12833;DHT22;6483;51.310;4.462;2023-05-10T08:54:23;20.00;1.00
12833;DHT22;6483;51.310;4.462;2023-05-10T08:56:49;19.20;1.00
12833;DHT22;6483;51.310;4.462;2023-05-10T08:59:15;18.80;8.50
12833;DHT22;6483;51.310;4.462;2023-05-10T09:01:43;18.50;36.80
12833;DHT22;6483;51.310;4.462;2023-05-10T09:04:11;19.20;30.70
12833;DHT22;6483;51.310;4.462;2023-05-10T09:06:37;19.90;1.00
12833;DHT22;6483;51.310;4.462;2023-05-10T09:09:03;19.10;1.00
12833;DHT22;6483;51.310;4.462;2023-05-10T09:11:29;19.20;14.50
12833;DHT22;6483;51.310;4.462;2023-05-10T09:13:55;20.50;1.00
12833;DHT22;6483;51.310;4.462;2023-05-10T09:16:22;20.40;1.00
12833;DHT22;6483;51.310;4.462;2023-05-10T09:18:48;19.70;1.00
12833;DHT22;6483;51.310;4.462;2023-05-10T09:21:14;18.80;1.00
12833;DHT22;6483;51.310;4.462;2023-05-10T09:23:49;19.10;15.00
12833;DHT22;6483;51.310;4.462;2023-05-10T09:26:15;19.40;1.00
12833;DHT22;6483;51.310;4.462;2023-05-10T09:28:53;20.00;1.00
12833;DHT22;6483;51.310;4.462;2023-05-10T09:31:19;20.50;1.00
12833;DHT22;6483;51.310;4.462;2023-05-10T09:33:46;19.90;1.00
12833;DHT22;6483;51.310;4.462;2023-05-10T09:36:13;19.20;1.00
12833;DHT22;6483;51.310;4.462;2023-05-10T09:38:50;19.30;1.00
12833;DHT22;6483;51.310;4.462;2023-05-10T09:41:21;18.80;1.00
12833;DHT22;6483;51.310;4.462;2023-05-10T09:43:48;18.40;28.80
12833;DHT22;6483;51.310;4.462;2023-05-10T09:46:15;18.20;10.40
12833;DHT22;6483;51.310;4.462;2023-05-10T09:48:45;16.50;19.60
12833;DHT22;6483;51.310;4.462;2023-05-10T09:51:21;17.90;29.50
12833;DHT22;6483;51.310;4.462;2023-05-10T09:54:15;17.70;26.50
12833;DHT22;6483;51.310;4.462;2023-05-10T09:56:41;17.60;36.50
12833;DHT22;6483;51.310;4.462;2023-05-10T09:59:10;17.60;52.20
12833;DHT22;6483;51.310;4.462;2023-05-10T10:01:39;17.30;70.30
12833;DHT22;6483;51.310;4.462;2023-05-10T10:04:08;17.40;90.90
12833;DHT22;6483;51.310;4.462;2023-05-10T10:06:39;17.60;56.70
12833;DHT22;6483;51.310;4.462;2023-05-10T10:09:08;18.30;36.20
12833;DHT22;6483;51.310;4.462;2023-05-10T10:11:35;19.30;17.90
12833;DHT22;6483;51.310;4.462;2023-05-10T10:14:03;19.70;1.00
12833;DHT22;6483;51.310;4.462;2023-05-10T10:16:30;19.40;1.00
12833;DHT22;6483;51.310;4.462;2023-05-10T10:18:59;19.30;1.00
12833;DHT22;6483;51.310;4.462;2023-05-10T10:21:28;19.40;1.00
12833;DHT22;6483;51.310;4.462;2023-05-10T10:23:54;19.60;1.00
12833;DHT22;6483;51.310;4.462;2023-05-10T10:26:22;19.50;1.00
12833;DHT22;6483;51.310;4.462;2023-05-10T10:29:21;19.60;1.00
12833;DHT22;6483;51.310;4.462;2023-05-10T10:34:50;19.50;1.00
12833;DHT22;6483;51.310;4.462;2023-05-10T10:37:19;18.80;15.30
12833;DHT22;6483;51.310;4.462;2023-05-10T10:39:44;18.40;49.60
12833;DHT22;6483;51.310;4.462;2023-05-10T10:42:13;18.40;75.20
12833;DHT22;6483;51.310;4.462;2023-05-10T10:44:38;19.10;74.80
12833;DHT22;6483;51.310;4.462;2023-05-10T10:49:48;20.90;4.40
12833;DHT22;6483;51.310;4.462;2023-05-10T10:55:13;20.20;1.00
12833;DHT22;6483;51.310;4.462;2023-05-10T10:57:50;19.60;14.30
12833;DHT22;6483;51.310;4.462;2023-05-10T11:00:28;19.30;26.40
12833;DHT22;6483;51.310;4.462;2023-05-10T11:03:03;19.20;42.50
12833;DHT22;6483;51.310;4.462;2023-05-10T11:05:45;19.00;34.40
12833;DHT22;6483;51.310;4.462;2023-05-10T11:08:31;18.30;52.70
12833;DHT22;6483;51.310;4.462;2023-05-10T11:11:03;17.80;88.90
12833;DHT22;6483;51.310;4.462;2023-05-10T11:16:24;17.10;99.90
12833;DHT22;6483;51.310;4.462;2023-05-10T11:21:25;17.30;99.90
12833;DHT22;6483;51.310;4.462;2023-05-10T11:23:58;17.80;99.90
12833;DHT22;6483;51.310;4.462;2023-05-10T11:26:29;18.30;99.90
12833;DHT22;6483;51.310;4.462;2023-05-10T11:28:55;17.80;94.50
12833;DHT22;6483;51.310;4.462;2023-05-10T11:31:21;17.20;99.90
12833;DHT22;6483;51.310;4.462;2023-05-10T11:33:50;16.90;99.90
12833;DHT22;6483;51.310;4.462;2023-05-10T11:36:39;16.80;99.90
12833;DHT22;6483;51.310;4.462;2023-05-10T11:39:05;16.80;99.90
12833;DHT22;6483;51.310;4.462;2023-05-10T11:41:34;16.90;99.90
12833;DHT22;6483;51.310;4.462;2023-05-10T11:44:01;17.20;99.90
12833;DHT22;6483;51.310;4.462;2023-05-10T11:46:28;17.70;99.90
12833;DHT22;6483;51.310;4.462;2023-05-10T11:48:58;17.90;99.90
12833;DHT22;6483;51.310;4.462;2023-05-10T11:51:29;18.40;97.50
12833;DHT22;6483;51.310;4.462;2023-05-10T11:53:58;18.80;74.40
12833;DHT22;6483;51.310;4.462;2023-05-10T11:56:24;18.70;80.00
12833;DHT22;6483;51.310;4.462;2023-05-10T11:58:58;18.80;68.60
12833;DHT22;6483;51.310;4.462;2023-05-10T12:01:26;19.00;58.90
12833;DHT22;6483;51.310;4.462;2023-05-10T12:03:53;19.20;53.80
12833;DHT22;6483;51.310;4.462;2023-05-10T12:06:20;19.00;52.20
12833;DHT22;6483;51.310;4.462;2023-05-10T12:08:47;18.50;65.10
12833;DHT22;6483;51.310;4.462;2023-05-10T12:11:14;18.00;85.50
12833;DHT22;6483;51.310;4.462;2023-05-10T12:13:44;17.60;99.90
12833;DHT22;6483;51.310;4.462;2023-05-10T12:16:17;17.30;99.90
12833;DHT22;6483;51.310;4.462;2023-05-10T12:18:44;17.10;99.90
12833;DHT22;6483;51.310;4.462;2023-05-10T12:21:11;17.10;99.90
12833;DHT22;6483;51.310;4.462;2023-05-10T12:23:37;17.00;99.90
12833;DHT22;6483;51.310;4.462;2023-05-10T12:26:03;16.90;99.90
12833;DHT22;6483;51.310;4.462;2023-05-10T12:28:33;17.00;99.90
12833;DHT22;6483;51.310;4.462;2023-05-10T12:31:02;16.70;99.90
12833;DHT22;6483;51.310;4.462;2023-05-10T12:33:39;16.50;99.90
12833;DHT22;6483;51.310;4.462;2023-05-10T12:36:07;16.50;99.90
12833;DHT22;6483;51.310;4.462;2023-05-10T12:38:41;16.40;99.90
12833;DHT22;6483;51.310;4.462;2023-05-10T12:41:15;16.30;99.90
12833;DHT22;6483;51.310;4.462;2023-05-10T12:43:41;16.30;99.90
12833;DHT22;6483;51.310;4.462;2023-05-10T12:46:11;16.50;99.90
12833;DHT22;6483;51.310;4.462;2023-05-10T12:48:38;16.60;99.90
12833;DHT22;6483;51.310;4.462;2023-05-10T12:51:05;16.70;99.90
12833;DHT22;6483;51.310;4.462;2023-05-10T12:53:31;16.70;99.90
12833;DHT22;6483;51.310;4.462;2023-05-10T12:55:57;16.60;99.90
12833;DHT22;6483;51.310;4.462;2023-05-10T12:58:23;16.60;99.90
12833;DHT22;6483;51.310;4.462;2023-05-10T13:00:48;16.60;99.90
12833;DHT22;6483;51.310;4.462;2023-05-10T13:03:14;16.40;99.90
12833;DHT22;6483;51.310;4.462;2023-05-10T13:05:41;16.30;99.90
12833;DHT22;6483;51.310;4.462;2023-05-10T13:08:06;15.90;99.90
12833;DHT22;6483;51.310;4.462;2023-05-10T13:10:32;15.30;99.90
12833;DHT22;6483;51.310;4.462;2023-05-10T13:12:58;14.80;99.90
12833;DHT22;6483;51.310;4.462;2023-05-10T13:15:24;14.40;99.90
12833;DHT22;6483;51.310;4.462;2023-05-10T13:17:55;14.10;99.90
12833;DHT22;6483;51.310;4.462;2023-05-10T13:20:21;13.90;99.90
12833;DHT22;6483;51.310;4.462;2023-05-10T13:22:47;13.80;99.90
12833;DHT22;6483;51.310;4.462;2023-05-10T13:25:13;13.70;99.90
12833;DHT22;6483;51.310;4.462;2023-05-10T13:27:41;13.70;99.90
12833;DHT22;6483;51.310;4.462;2023-05-10T13:30:08;13.70;99.90
12833;DHT22;6483;51.310;4.462;2023-05-10T13:32:37;13.70;99.90
12833;DHT22;6483;51.310;4.462;2023-05-10T13:35:09;13.80;99.90
12833;DHT22;6483;51.310;4.462;2023-05-10T13:37:35;13.90;99.90
12833;DHT22;6483;51.310;4.462;2023-05-10T13:40:03;13.90;99.90
12833;DHT22;6483;51.310;4.462;2023-05-10T13:42:29;14.10;99.90
12833;DHT22;6483;51.310;4.462;2023-05-10T13:44:57;14.30;99.90
12833;DHT22;6483;51.310;4.462;2023-05-10T13:47:22;14.40;99.90
12833;DHT22;6483;51.310;4.462;2023-05-10T13:49:48;14.50;99.90
12833;DHT22;6483;51.310;4.462;2023-05-10T13:52:13;14.50;99.90
12833;DHT22;6483;51.310;4.462;2023-05-10T13:54:39;14.50;99.90
12833;DHT22;6483;51.310;4.462;2023-05-10T13:57:05;14.70;99.90
12833;DHT22;6483;51.310;4.462;2023-05-10T13:59:31;14.80;99.90
12833;DHT22;6483;51.310;4.462;2023-05-10T14:01:58;14.70;99.90
12833;DHT22;6483;51.310;4.462;2023-05-10T14:04:24;14.50;99.90
12833;DHT22;6483;51.310;4.462;2023-05-10T14:06:49;14.30;99.90
12833;DHT22;6483;51.310;4.462;2023-05-10T14:09:15;14.10;99.90
12833;DHT22;6483;51.310;4.462;2023-05-10T14:11:41;14.00;99.90
12833;DHT22;6483;51.310;4.462;2023-05-10T14:14:09;13.90;99.90
12833;DHT22;6483;51.310;4.462;2023-05-10T14:16:35;13.90;99.90
12833;DHT22;6483;51.310;4.462;2023-05-10T14:19:00;14.00;99.90
12833;DHT22;6483;51.310;4.462;2023-05-10T14:21:27;13.90;99.90
12833;DHT22;6483;51.310;4.462;2023-05-10T14:23:54;14.00;99.90
12833;DHT22;6483;51.310;4.462;2023-05-10T14:26:20;14.00;99.90
12833;DHT22;6483;51.310;4.462;2023-05-10T14:28:47;14.20;99.90
12833;DHT22;6483;51.310;4.462;2023-05-10T14:31:12;14.30;99.90
12833;DHT22;6483;51.310;4.462;2023-05-10T14:33:39;14.40;99.90
12833;DHT22;6483;51.310;4.462;2023-05-10T14:36:06;14.50;99.90
12833;DHT22;6483;51.310;4.462;2023-05-10T14:38:32;14.50;99.90
12833;DHT22;6483;51.310;4.462;2023-05-10T14:40:58;14.50;99.90
12833;DHT22;6483;51.310;4.462;2023-05-10T14:43:24;14.40;99.90
12833;DHT22;6483;51.310;4.462;2023-05-10T14:45:50;14.50;99.90
12833;DHT22;6483;51.310;4.462;2023-05-10T14:48:18;14.60;99.90
12833;DHT22;6483;51.310;4.462;2023-05-10T14:50:46;14.70;99.90
12833;DHT22;6483;51.310;4.462;2023-05-10T14:53:13;14.90;99.90
12833;DHT22;6483;51.310;4.462;2023-05-10T14:55:38;15.00;99.90
12833;DHT22;6483;51.310;4.462;2023-05-10T14:58:05;15.00;99.90
12833;DHT22;6483;51.310;4.462;2023-05-10T15:00:31;14.90;99.90
12833;DHT22;6483;51.310;4.462;2023-05-10T15:03:00;14.90;99.90
12833;DHT22;6483;51.310;4.462;2023-05-10T15:05:26;14.80;99.90
12833;DHT22;6483;51.310;4.462;2023-05-10T15:07:52;14.70;99.90
12833;DHT22;6483;51.310;4.462;2023-05-10T15:10:18;14.70;99.90
12833;DHT22;6483;51.310;4.462;2023-05-10T15:12:43;14.70;99.90
12833;DHT22;6483;51.310;4.462;2023-05-10T15:15:09;14.80;99.90
12833;DHT22;6483;51.310;4.462;2023-05-10T15:17:38;14.70;99.90
12833;DHT22;6483;51.310;4.462;2023-05-10T15:20:06;14.60;99.90
12833;DHT22;6483;51.310;4.462;2023-05-10T15:22:31;14.50;99.90
12833;DHT22;6483;51.310;4.462;2023-05-10T15:24:58;14.30;99.90
12833;DHT22;6483;51.310;4.462;2023-05-10T15:27:25;14.20;99.90
12833;DHT22;6483;51.310;4.462;2023-05-10T15:29:51;14.10;99.90
12833;DHT22;6483;51.310;4.462;2023-05-10T15:32:20;14.10;99.90
12833;DHT22;6483;51.310;4.462;2023-05-10T15:34:50;14.10;99.90
12833;DHT22;6483;51.310;4.462;2023-05-10T15:37:18;14.00;99.90
12833;DHT22;6483;51.310;4.462;2023-05-10T15:39:44;14.00;99.90
12833;DHT22;6483;51.310;4.462;2023-05-10T15:42:10;14.00;99.90
12833;DHT22;6483;51.310;4.462;2023-05-10T15:44:35;14.00;99.90
12833;DHT22;6483;51.310;4.462;2023-05-10T15:47:06;14.00;99.90
12833;DHT22;6483;51.310;4.462;2023-05-10T15:49:32;14.00;99.90
12833;DHT22;6483;51.310;4.462;2023-05-10T15:52:01;14.00;99.90
12833;DHT22;6483;51.310;4.462;2023-05-10T15:54:30;14.00;99.90
12833;DHT22;6483;51.310;4.462;2023-05-10T15:56:56;14.00;99.90
12833;DHT22;6483;51.310;4.462;2023-05-10T15:59:24;14.00;99.90
12833;DHT22;6483;51.310;4.462;2023-05-10T16:01:53;14.10;99.90
12833;DHT22;6483;51.310;4.462;2023-05-10T16:04:19;14.00;99.90
12833;DHT22;6483;51.310;4.462;2023-05-10T16:06:45;13.90;99.90
12833;DHT22;6483;51.310;4.462;2023-05-10T16:09:11;13.90;99.90
12833;DHT22;6483;51.310;4.462;2023-05-10T16:11:37;13.90;99.90
12833;DHT22;6483;51.310;4.462;2023-05-10T16:14:02;13.90;99.90
12833;DHT22;6483;51.310;4.462;2023-05-10T16:16:28;13.90;99.90
12833;DHT22;6483;51.310;4.462;2023-05-10T16:18:54;13.90;99.90
12833;DHT22;6483;51.310;4.462;2023-05-10T16:21:19;13.90;99.90
12833;DHT22;6483;51.310;4.462;2023-05-10T16:23:45;13.90;99.90